Terminal Aerodrome Forecast
Issued by NWS

Home | Current Version | Previous Version | Text Only | Print | Product List | Glossary On
Versions: 1 2 3 4 5 6 7 8 9 10 11 12 13 14 15 16 17 18 19 20 21 22 23 24 25 26 27 28 29 30 31 32 33 34 35 36 37 38
610
FTUS46 KOTX 241131
TAFPUW
TAF
KPUW 241131Z 2412/2512 10007KT P6SM -RA SCT050 OVC060
     FM241500 11015KT 5SM -RA BR SCT025 OVC040
     FM241800 14012KT 4SM -RA BR SCT012 OVC021
     FM250100 21006KT P6SM -SHRA SCT025 OVC040
     FM250700 21005KT P6SM BKN090 OVC200=

USA.gov is the U.S. government's official web portal to all federal, state and local government web resources and services.